»·PEaware :: N1DB KAVX-L35

N1DB :: KAVX-L35

FLIGHT INFORMATION

Flight Status: Arrived
Operator: Privately registered:
United States
More flights under this callsign
Pilot: Dominic B. (18944)
Aircraft: MCDONNELL-DOUGLAS SKYTRAIN C-47
(DC3)
More flights by this aircraft type
Origin: KAVX Catalina
United States
Destination: L35 Big Bear City
United States
More flights between these airports :: More routes between these airports
Route: +SXC V21 PDZ V442 APLES V386 OKACO
File this flight plan on PilotEdge
Remarks: RMK / SIMBRIEF
Altitude:
(Current/Filed)
11,000ft
Speed:
(Current/Filed)
141kts
Departed: 12-Nov-20 09:17 PM
Arrived: 12-Nov-20 10:10 PM
Distance/Time
Traveled:
94nm/0:53
Distance/Time
To Go:
Arrived

Flight Plot

Page will automatically refresh every two minutes.

Flight plan parsing failed; only flown route is shown


Map Options




Map Legend


Flown Route
Filed Route
Departure Airport
Arrival Airport
Navaid (VOR, NDB)
Fix

Horizontal Profiles

Position Reports

Time Latitude Longitude Heading Altitude Ground
Speed
12-Nov-20 21:01 33.404442 -118.418073 162 1610ft 0kts
12-Nov-20 21:02 33.404442 -118.418073 162 1610ft 0kts
12-Nov-20 21:03 33.404442 -118.418073 162 1610ft 0kts
12-Nov-20 21:04 33.404442 -118.418073 162 1610ft 0kts
12-Nov-20 21:05 33.404442 -118.418073 162 1610ft 0kts
12-Nov-20 21:06 33.404442 -118.418073 162 1610ft 0kts
12-Nov-20 21:07 33.404442 -118.418073 162 1610ft 0kts
12-Nov-20 21:08 33.404442 -118.418073 162 1610ft 0kts
12-Nov-20 21:09 33.404441 -118.418072 162 1610ft 0kts
12-Nov-20 21:10 33.404440 -118.418072 162 1610ft 0kts
12-Nov-20 21:11 33.404439 -118.418071 162 1610ft 0kts
12-Nov-20 21:12 33.404437 -118.418071 162 1610ft 0kts
12-Nov-20 21:13 33.404881 -118.416718 54 1610ft 8kts
12-Nov-20 21:14 33.406114 -118.414660 53 1610ft 7kts
12-Nov-20 21:15 33.407264 -118.412597 56 1610ft 5kts
12-Nov-20 21:16 33.404742 -118.416192 237 1611ft 70kts
12-Nov-20 21:17 33.403401 -118.446687 301 2411ft 132kts
12-Nov-20 21:18 33.423029 -118.485189 301 3283ft 137kts
12-Nov-20 21:19 33.445558 -118.521754 312 4088ft 142kts
12-Nov-20 21:20 33.483864 -118.533539 12 4822ft 154kts
12-Nov-20 21:21 33.499149 -118.488205 106 5218ft 162kts
12-Nov-20 21:22 33.461415 -118.451733 158 4776ft 185kts
12-Nov-20 21:23 33.412626 -118.440853 170 4917ft 167kts
12-Nov-20 21:24 33.366718 -118.423879 160 4889ft 181kts
12-Nov-20 21:25 33.344502 -118.374839 89 5016ft 183kts
12-Nov-20 21:26 33.366554 -118.335919 357 5826ft 159kts
12-Nov-20 21:27 33.408430 -118.360151 329 5988ft 166kts
12-Nov-20 21:28 33.438247 -118.329238 71 5998ft 163kts
12-Nov-20 21:29 33.451533 -118.278822 71 5996ft 154kts
12-Nov-20 21:30 33.463535 -118.233732 71 5995ft 152kts
12-Nov-20 21:31 33.476628 -118.185376 71 5992ft 152kts
12-Nov-20 21:32 33.488927 -118.140365 70 5998ft 153kts
12-Nov-20 21:33 33.515196 -118.117523 348 6005ft 146kts
12-Nov-20 21:34 33.554327 -118.132743 339 6000ft 148kts
12-Nov-20 21:35 33.593535 -118.148886 339 5999ft 149kts
12-Nov-20 21:36 33.632614 -118.165221 347 5994ft 150kts
12-Nov-20 21:37 33.670805 -118.145437 22 5999ft 151kts
12-Nov-20 21:38 33.709397 -118.124952 31 6000ft 152kts
12-Nov-20 21:39 33.744962 -118.096999 35 5999ft 153kts
12-Nov-20 21:40 33.779353 -118.066028 53 5924ft 162kts
12-Nov-20 21:41 33.799360 -118.019318 72 6403ft 157kts
12-Nov-20 21:42 33.813305 -117.971681 71 7134ft 143kts
12-Nov-20 21:43 33.823648 -117.926186 74 7859ft 152kts
12-Nov-20 21:44 33.835163 -117.874343 74 8484ft 154kts
12-Nov-20 21:45 33.845697 -117.826690 74 8996ft 148kts
12-Nov-20 21:46 33.857124 -117.775418 74 9004ft 166kts
12-Nov-20 21:47 33.869538 -117.720972 73 9001ft 170kts
12-Nov-20 21:48 33.881342 -117.665669 72 9004ft 171kts
12-Nov-20 21:49 33.895847 -117.610967 71 8999ft 171kts
12-Nov-20 21:50 33.910515 -117.556267 71 9006ft 175kts
12-Nov-20 21:51 33.925493 -117.499644 81 9008ft 183kts
12-Nov-20 21:52 33.958607 -117.458955 24 9004ft 177kts
12-Nov-20 21:53 34.005498 -117.446385 1 9013ft 175kts
12-Nov-20 21:54 34.054089 -117.440881 11 8993ft 169kts
12-Nov-20 21:56 34.096501 -117.416868 24 9008ft 172kts
12-Nov-20 21:57 34.139796 -117.390887 23 9013ft 177kts
12-Nov-20 21:58 34.184153 -117.364463 23 9004ft 170kts
12-Nov-20 21:59 34.226015 -117.339537 23 9001ft 167kts
12-Nov-20 22:00 34.254107 -117.298283 79 9222ft 158kts
12-Nov-20 22:01 34.255449 -117.248867 87 9479ft 156kts
12-Nov-20 22:02 34.254162 -117.196107 103 9609ft 158kts
12-Nov-20 22:03 34.242960 -117.142774 108 9550ft 170kts
12-Nov-20 22:04 34.228243 -117.086868 112 9335ft 175kts
12-Nov-20 22:05 34.223650 -117.029824 84 8992ft 175kts
12-Nov-20 22:06 34.231506 -116.973566 80 8710ft 159kts
12-Nov-20 22:07 34.245595 -116.925276 55 7937ft 150kts
12-Nov-20 22:08 34.262506 -116.887125 75 7253ft 107kts
12-Nov-20 22:09 34.263791 -116.856949 89 6761ft 71kts
12-Nov-20 22:10 34.263825 -116.847673 89 6761ft 16kts
12-Nov-20 22:11 34.263834 -116.846571 94 6761ft 0kts

Navigation Log

Ident Type
Flight plan parsing failed, navigation log unavailable